Dennis Landing, Mississippi
Current Conditions -  °F | °C
As of 2:35 AM on Monday 22 Dec 2014 (Local Time) from KRNV Reporting Station
Haze Haze  
Wind Chill: 44°   Ceiling: 300
Heat Index: 49°   Visibility: 3mi
Dew Point: 49°   Wind: 12mph
Humidity: 100%   Direction: 150°SSE
Pressure: 29.87"   Gusts: 17mph
Location:  33.9429°N, 90.9264°W
Report Text: KRNV 220835Z AUTO 15010G15KT 3SM BR OVC003 09/09 A2987 RMK AO2 T00920092
Loading
Personal Weather Stations






























Interactive Weather Map New forecast layout! Learn more

10-Day Weather Forecast

Advertisements
Track Severe Weather on mobile